sensor_id;sensor_type;location;lat;lon;timestamp;P1;durP1;ratioP1;P2;durP2;ratioP2
4756;SDS011;2392;52.578;13.426;2023-04-24T00:01:05;4.70;;;4.30;;
4756;SDS011;2392;52.578;13.426;2023-04-24T00:03:34;4.50;;;4.10;;
4756;SDS011;2392;52.578;13.426;2023-04-24T00:06:01;4.80;;;4.33;;
4756;SDS011;2392;52.578;13.426;2023-04-24T00:08:28;4.43;;;4.13;;
4756;SDS011;2392;52.578;13.426;2023-04-24T00:10:55;4.50;;;4.20;;
4756;SDS011;2392;52.578;13.426;2023-04-24T00:13:22;4.67;;;4.27;;
4756;SDS011;2392;52.578;13.426;2023-04-24T00:15:49;5.17;;;4.77;;
4756;SDS011;2392;52.578;13.426;2023-04-24T00:18:18;7.20;;;4.30;;
4756;SDS011;2392;52.578;13.426;2023-04-24T00:20:44;4.97;;;4.47;;
4756;SDS011;2392;52.578;13.426;2023-04-24T00:23:12;7.70;;;4.23;;
4756;SDS011;2392;52.578;13.426;2023-04-24T00:25:39;5.43;;;4.93;;
4756;SDS011;2392;52.578;13.426;2023-04-24T00:28:06;4.60;;;4.30;;
4756;SDS011;2392;52.578;13.426;2023-04-24T00:30:33;5.27;;;4.77;;
4756;SDS011;2392;52.578;13.426;2023-04-24T00:33:01;5.47;;;4.93;;
4756;SDS011;2392;52.578;13.426;2023-04-24T00:35:29;9.17;;;4.80;;
4756;SDS011;2392;52.578;13.426;2023-04-24T00:37:56;5.40;;;4.90;;
4756;SDS011;2392;52.578;13.426;2023-04-24T00:40:23;5.50;;;4.77;;
4756;SDS011;2392;52.578;13.426;2023-04-24T00:42:50;5.13;;;4.63;;
4756;SDS011;2392;52.578;13.426;2023-04-24T00:45:17;5.23;;;4.83;;
4756;SDS011;2392;52.578;13.426;2023-04-24T00:47:44;5.03;;;4.53;;
4756;SDS011;2392;52.578;13.426;2023-04-24T00:50:12;6.20;;;5.60;;
4756;SDS011;2392;52.578;13.426;2023-04-24T00:52:42;5.50;;;4.97;;
4756;SDS011;2392;52.578;13.426;2023-04-24T00:55:09;8.23;;;5.80;;
4756;SDS011;2392;52.578;13.426;2023-04-24T00:57:36;6.97;;;5.80;;
4756;SDS011;2392;52.578;13.426;2023-04-24T01:00:04;7.53;;;5.83;;
4756;SDS011;2392;52.578;13.426;2023-04-24T01:02:37;5.90;;;5.40;;
4756;SDS011;2392;52.578;13.426;2023-04-24T01:05:09;6.97;;;6.30;;
4756;SDS011;2392;52.578;13.426;2023-04-24T01:07:36;5.83;;;5.20;;
4756;SDS011;2392;52.578;13.426;2023-04-24T01:10:06;5.17;;;4.67;;
4756;SDS011;2392;52.578;13.426;2023-04-24T01:12:34;4.93;;;4.53;;
4756;SDS011;2392;52.578;13.426;2023-04-24T01:15:02;5.60;;;5.13;;
4756;SDS011;2392;52.578;13.426;2023-04-24T01:17:30;5.60;;;5.10;;
4756;SDS011;2392;52.578;13.426;2023-04-24T01:19:57;8.70;;;5.50;;
4756;SDS011;2392;52.578;13.426;2023-04-24T01:22:26;8.23;;;6.03;;
4756;SDS011;2392;52.578;13.426;2023-04-24T01:24:53;8.10;;;6.70;;
4756;SDS011;2392;52.578;13.426;2023-04-24T01:27:20;7.40;;;5.60;;
4756;SDS011;2392;52.578;13.426;2023-04-24T01:29:47;7.17;;;6.50;;
4756;SDS011;2392;52.578;13.426;2023-04-24T01:32:17;6.10;;;5.50;;
4756;SDS011;2392;52.578;13.426;2023-04-24T01:34:45;6.30;;;5.70;;
4756;SDS011;2392;52.578;13.426;2023-04-24T01:37:12;5.37;;;4.87;;
4756;SDS011;2392;52.578;13.426;2023-04-24T01:39:40;7.07;;;5.63;;
4756;SDS011;2392;52.578;13.426;2023-04-24T01:42:07;4.90;;;4.40;;
4756;SDS011;2392;52.578;13.426;2023-04-24T01:44:34;6.20;;;5.60;;
4756;SDS011;2392;52.578;13.426;2023-04-24T01:47:02;5.40;;;4.90;;
4756;SDS011;2392;52.578;13.426;2023-04-24T01:49:30;5.90;;;5.00;;
4756;SDS011;2392;52.578;13.426;2023-04-24T01:51:57;4.73;;;4.40;;
4756;SDS011;2392;52.578;13.426;2023-04-24T01:54:24;4.97;;;4.47;;
4756;SDS011;2392;52.578;13.426;2023-04-24T01:56:53;6.17;;;4.73;;
4756;SDS011;2392;52.578;13.426;2023-04-24T01:59:20;5.80;;;4.77;;
4756;SDS011;2392;52.578;13.426;2023-04-24T02:01:47;5.30;;;4.90;;
4756;SDS011;2392;52.578;13.426;2023-04-24T02:04:18;5.00;;;4.60;;
4756;SDS011;2392;52.578;13.426;2023-04-24T02:06:46;5.23;;;4.70;;
4756;SDS011;2392;52.578;13.426;2023-04-24T02:09:13;5.07;;;4.57;;
4756;SDS011;2392;52.578;13.426;2023-04-24T02:11:40;5.20;;;4.50;;
4756;SDS011;2392;52.578;13.426;2023-04-24T02:14:08;5.60;;;4.87;;
4756;SDS011;2392;52.578;13.426;2023-04-24T02:16:38;5.63;;;5.23;;
4756;SDS011;2392;52.578;13.426;2023-04-24T02:19:06;5.80;;;5.20;;
4756;SDS011;2392;52.578;13.426;2023-04-24T02:21:33;5.90;;;5.30;;
4756;SDS011;2392;52.578;13.426;2023-04-24T02:24:00;5.47;;;4.97;;
4756;SDS011;2392;52.578;13.426;2023-04-24T02:26:27;5.40;;;4.80;;
4756;SDS011;2392;52.578;13.426;2023-04-24T02:28:56;5.37;;;4.80;;
4756;SDS011;2392;52.578;13.426;2023-04-24T02:31:24;5.83;;;5.20;;
4756;SDS011;2392;52.578;13.426;2023-04-24T02:33:51;6.57;;;5.97;;
4756;SDS011;2392;52.578;13.426;2023-04-24T02:36:18;6.83;;;6.20;;
4756;SDS011;2392;52.578;13.426;2023-04-24T02:38:47;5.37;;;4.97;;
4756;SDS011;2392;52.578;13.426;2023-04-24T02:41:14;6.03;;;5.50;;
4756;SDS011;2392;52.578;13.426;2023-04-24T02:43:41;5.90;;;5.30;;
4756;SDS011;2392;52.578;13.426;2023-04-24T02:46:08;5.33;;;4.90;;
4756;SDS011;2392;52.578;13.426;2023-04-24T02:48:36;6.23;;;5.63;;
4756;SDS011;2392;52.578;13.426;2023-04-24T02:51:05;5.93;;;5.43;;
4756;SDS011;2392;52.578;13.426;2023-04-24T02:53:32;5.30;;;4.90;;
4756;SDS011;2392;52.578;13.426;2023-04-24T02:55:59;6.07;;;5.57;;
4756;SDS011;2392;52.578;13.426;2023-04-24T02:58:26;5.53;;;5.03;;
4756;SDS011;2392;52.578;13.426;2023-04-24T03:00:53;6.17;;;5.23;;
4756;SDS011;2392;52.578;13.426;2023-04-24T03:03:21;5.87;;;5.37;;
4756;SDS011;2392;52.578;13.426;2023-04-24T03:05:50;5.83;;;5.33;;
4756;SDS011;2392;52.578;13.426;2023-04-24T03:08:17;8.20;;;6.10;;
4756;SDS011;2392;52.578;13.426;2023-04-24T03:10:44;6.33;;;5.80;;
4756;SDS011;2392;52.578;13.426;2023-04-24T03:13:13;6.53;;;5.77;;
4756;SDS011;2392;52.578;13.426;2023-04-24T03:15:42;8.00;;;6.37;;
4756;SDS011;2392;52.578;13.426;2023-04-24T03:18:10;6.47;;;5.90;;
4756;SDS011;2392;52.578;13.426;2023-04-24T03:20:37;6.67;;;6.07;;
4756;SDS011;2392;52.578;13.426;2023-04-24T03:23:05;6.07;;;5.47;;
4756;SDS011;2392;52.578;13.426;2023-04-24T03:25:33;6.00;;;5.40;;
4756;SDS011;2392;52.578;13.426;2023-04-24T03:28:00;7.90;;;5.70;;
4756;SDS011;2392;52.578;13.426;2023-04-24T03:30:37;6.83;;;6.23;;
4756;SDS011;2392;52.578;13.426;2023-04-24T03:33:05;5.87;;;5.30;;
4756;SDS011;2392;52.578;13.426;2023-04-24T03:35:36;7.37;;;5.97;;
4756;SDS011;2392;52.578;13.426;2023-04-24T03:38:09;7.23;;;6.53;;
4756;SDS011;2392;52.578;13.426;2023-04-24T03:40:55;6.90;;;6.30;;
4756;SDS011;2392;52.578;13.426;2023-04-24T03:43:54;6.77;;;6.17;;
4756;SDS011;2392;52.578;13.426;2023-04-24T03:46:21;6.27;;;5.67;;
4756;SDS011;2392;52.578;13.426;2023-04-24T03:48:58;8.33;;;5.40;;
4756;SDS011;2392;52.578;13.426;2023-04-24T03:51:29;10.20;;;5.67;;
4756;SDS011;2392;52.578;13.426;2023-04-24T03:54:05;5.80;;;5.37;;
4756;SDS011;2392;52.578;13.426;2023-04-24T03:56:35;5.57;;;5.00;;
4756;SDS011;2392;52.578;13.426;2023-04-24T03:59:02;5.93;;;5.33;;
4756;SDS011;2392;52.578;13.426;2023-04-24T04:01:30;5.43;;;4.93;;
4756;SDS011;2392;52.578;13.426;2023-04-24T04:04:01;6.13;;;5.33;;
4756;SDS011;2392;52.578;13.426;2023-04-24T04:06:29;6.00;;;5.50;;
4756;SDS011;2392;52.578;13.426;2023-04-24T04:08:58;7.00;;;6.40;;
4756;SDS011;2392;52.578;13.426;2023-04-24T04:11:27;9.80;;;6.20;;
4756;SDS011;2392;52.578;13.426;2023-04-24T04:13:54;6.90;;;5.67;;
4756;SDS011;2392;52.578;13.426;2023-04-24T04:16:21;6.10;;;5.60;;
4756;SDS011;2392;52.578;13.426;2023-04-24T04:18:53;6.00;;;5.40;;
4756;SDS011;2392;52.578;13.426;2023-04-24T04:21:21;5.87;;;5.37;;
4756;SDS011;2392;52.578;13.426;2023-04-24T04:23:53;6.60;;;5.33;;
4756;SDS011;2392;52.578;13.426;2023-04-24T04:26:28;5.27;;;4.83;;
4756;SDS011;2392;52.578;13.426;2023-04-24T04:29:01;8.40;;;5.90;;
4756;SDS011;2392;52.578;13.426;2023-04-24T04:31:29;6.17;;;5.57;;
4756;SDS011;2392;52.578;13.426;2023-04-24T04:34:00;5.40;;;4.90;;
4756;SDS011;2392;52.578;13.426;2023-04-24T04:36:30;5.73;;;5.13;;
4756;SDS011;2392;52.578;13.426;2023-04-24T04:39:06;7.53;;;5.77;;
4756;SDS011;2392;52.578;13.426;2023-04-24T04:42:01;5.63;;;5.13;;
4756;SDS011;2392;52.578;13.426;2023-04-24T04:44:35;5.77;;;5.20;;
4756;SDS011;2392;52.578;13.426;2023-04-24T04:47:05;5.67;;;5.27;;
4756;SDS011;2392;52.578;13.426;2023-04-24T04:49:35;5.23;;;4.83;;
4756;SDS011;2392;52.578;13.426;2023-04-24T04:52:06;6.43;;;5.13;;
4756;SDS011;2392;52.578;13.426;2023-04-24T04:54:33;5.73;;;5.23;;
4756;SDS011;2392;52.578;13.426;2023-04-24T04:57:02;6.07;;;4.80;;
4756;SDS011;2392;52.578;13.426;2023-04-24T04:59:31;6.60;;;5.40;;
4756;SDS011;2392;52.578;13.426;2023-04-24T05:02:04;5.70;;;5.30;;
4756;SDS011;2392;52.578;13.426;2023-04-24T05:04:31;5.40;;;4.90;;
4756;SDS011;2392;52.578;13.426;2023-04-24T05:06:58;5.10;;;4.70;;
4756;SDS011;2392;52.578;13.426;2023-04-24T05:09:27;6.27;;;5.00;;
4756;SDS011;2392;52.578;13.426;2023-04-24T05:12:01;11.50;;;4.17;;
4756;SDS011;2392;52.578;13.426;2023-04-24T05:14:33;6.93;;;4.80;;
4756;SDS011;2392;52.578;13.426;2023-04-24T05:17:00;4.20;;;3.90;;
4756;SDS011;2392;52.578;13.426;2023-04-24T05:19:29;8.33;;;4.87;;
4756;SDS011;2392;52.578;13.426;2023-04-24T05:21:58;5.47;;;5.03;;
4756;SDS011;2392;52.578;13.426;2023-04-24T05:24:29;4.97;;;4.40;;
4756;SDS011;2392;52.578;13.426;2023-04-24T05:27:29;6.03;;;4.33;;
4756;SDS011;2392;52.578;13.426;2023-04-24T05:29:57;5.07;;;3.90;;
4756;SDS011;2392;52.578;13.426;2023-04-24T05:32:24;4.70;;;4.30;;
4756;SDS011;2392;52.578;13.426;2023-04-24T05:34:53;4.80;;;4.40;;
4756;SDS011;2392;52.578;13.426;2023-04-24T05:37:21;3.70;;;3.40;;
4756;SDS011;2392;52.578;13.426;2023-04-24T05:39:48;4.60;;;3.67;;
4756;SDS011;2392;52.578;13.426;2023-04-24T05:42:14;4.43;;;4.13;;
4756;SDS011;2392;52.578;13.426;2023-04-24T05:44:43;4.50;;;3.40;;
4756;SDS011;2392;52.578;13.426;2023-04-24T05:47:10;3.90;;;3.60;;
4756;SDS011;2392;52.578;13.426;2023-04-24T05:49:37;3.83;;;3.53;;
4756;SDS011;2392;52.578;13.426;2023-04-24T05:52:05;3.80;;;3.40;;
4756;SDS011;2392;52.578;13.426;2023-04-24T05:54:35;4.07;;;3.17;;
4756;SDS011;2392;52.578;13.426;2023-04-24T05:57:04;2.80;;;2.60;;
4756;SDS011;2392;52.578;13.426;2023-04-24T05:59:49;2.77;;;2.33;;
4756;SDS011;2392;52.578;13.426;2023-04-24T06:02:17;2.93;;;2.70;;
4756;SDS011;2392;52.578;13.426;2023-04-24T06:04:44;2.73;;;2.53;;
4756;SDS011;2392;52.578;13.426;2023-04-24T06:07:11;2.70;;;2.40;;
4756;SDS011;2392;52.578;13.426;2023-04-24T06:09:40;3.27;;;3.00;;
4756;SDS011;2392;52.578;13.426;2023-04-24T06:12:07;6.87;;;2.60;;
4756;SDS011;2392;52.578;13.426;2023-04-24T06:14:50;3.60;;;3.07;;
4756;SDS011;2392;52.578;13.426;2023-04-24T06:17:21;5.00;;;3.53;;
4756;SDS011;2392;52.578;13.426;2023-04-24T06:19:49;4.97;;;3.00;;
4756;SDS011;2392;52.578;13.426;2023-04-24T06:22:17;2.80;;;2.60;;
4756;SDS011;2392;52.578;13.426;2023-04-24T06:24:44;2.60;;;2.40;;
4756;SDS011;2392;52.578;13.426;2023-04-24T06:27:12;2.93;;;2.43;;
4756;SDS011;2392;52.578;13.426;2023-04-24T06:29:40;2.90;;;2.63;;
4756;SDS011;2392;52.578;13.426;2023-04-24T06:32:08;2.27;;;2.17;;
4756;SDS011;2392;52.578;13.426;2023-04-24T06:34:35;2.47;;;2.30;;
4756;SDS011;2392;52.578;13.426;2023-04-24T06:37:02;2.90;;;2.67;;
4756;SDS011;2392;52.578;13.426;2023-04-24T06:39:29;4.00;;;2.30;;
4756;SDS011;2392;52.578;13.426;2023-04-24T06:41:56;2.00;;;1.90;;
4756;SDS011;2392;52.578;13.426;2023-04-24T06:44:23;2.10;;;2.00;;
4756;SDS011;2392;52.578;13.426;2023-04-24T06:46:50;2.00;;;1.80;;
4756;SDS011;2392;52.578;13.426;2023-04-24T06:49:18;2.20;;;2.10;;
4756;SDS011;2392;52.578;13.426;2023-04-24T06:51:45;2.37;;;2.27;;
4756;SDS011;2392;52.578;13.426;2023-04-24T06:54:12;1.80;;;1.70;;
4756;SDS011;2392;52.578;13.426;2023-04-24T06:56:39;2.73;;;1.70;;
4756;SDS011;2392;52.578;13.426;2023-04-24T06:59:06;2.00;;;1.80;;
4756;SDS011;2392;52.578;13.426;2023-04-24T07:01:33;1.67;;;1.57;;
4756;SDS011;2392;52.578;13.426;2023-04-24T07:04:00;2.43;;;2.07;;
4756;SDS011;2392;52.578;13.426;2023-04-24T07:06:28;3.47;;;1.47;;
4756;SDS011;2392;52.578;13.426;2023-04-24T07:08:55;2.77;;;1.70;;
4756;SDS011;2392;52.578;13.426;2023-04-24T07:11:23;1.83;;;1.73;;
4756;SDS011;2392;52.578;13.426;2023-04-24T07:13:54;1.47;;;1.37;;
4756;SDS011;2392;52.578;13.426;2023-04-24T07:16:21;3.53;;;1.53;;
4756;SDS011;2392;52.578;13.426;2023-04-24T07:18:48;1.00;;;1.00;;
4756;SDS011;2392;52.578;13.426;2023-04-24T07:21:15;2.10;;;1.10;;
4756;SDS011;2392;52.578;13.426;2023-04-24T07:23:43;2.50;;;1.00;;
4756;SDS011;2392;52.578;13.426;2023-04-24T07:26:10;1.13;;;1.03;;
4756;SDS011;2392;52.578;13.426;2023-04-24T07:28:37;3.37;;;1.30;;
4756;SDS011;2392;52.578;13.426;2023-04-24T07:31:04;1.07;;;0.90;;
4756;SDS011;2392;52.578;13.426;2023-04-24T07:33:31;1.13;;;1.03;;
4756;SDS011;2392;52.578;13.426;2023-04-24T07:35:58;1.63;;;1.53;;
4756;SDS011;2392;52.578;13.426;2023-04-24T07:38:25;0.80;;;0.80;;
4756;SDS011;2392;52.578;13.426;2023-04-24T07:40:54;1.00;;;0.90;;
4756;SDS011;2392;52.578;13.426;2023-04-24T07:43:21;0.70;;;0.70;;
4756;SDS011;2392;52.578;13.426;2023-04-24T07:45:49;1.83;;;1.20;;
4756;SDS011;2392;52.578;13.426;2023-04-24T07:48:16;0.97;;;0.97;;
4756;SDS011;2392;52.578;13.426;2023-04-24T07:50:43;2.03;;;1.87;;
4756;SDS011;2392;52.578;13.426;2023-04-24T07:53:10;2.37;;;1.77;;
4756;SDS011;2392;52.578;13.426;2023-04-24T07:55:37;3.57;;;3.27;;
4756;SDS011;2392;52.578;13.426;2023-04-24T07:58:05;1.50;;;1.40;;
4756;SDS011;2392;52.578;13.426;2023-04-24T08:00:32;1.23;;;1.13;;
4756;SDS011;2392;52.578;13.426;2023-04-24T08:02:59;1.10;;;1.10;;
4756;SDS011;2392;52.578;13.426;2023-04-24T08:05:27;0.90;;;0.80;;
4756;SDS011;2392;52.578;13.426;2023-04-24T08:07:54;1.10;;;1.00;;
4756;SDS011;2392;52.578;13.426;2023-04-24T08:10:21;0.90;;;0.90;;
4756;SDS011;2392;52.578;13.426;2023-04-24T08:12:48;1.17;;;1.07;;
4756;SDS011;2392;52.578;13.426;2023-04-24T08:15:17;1.17;;;0.70;;
4756;SDS011;2392;52.578;13.426;2023-04-24T08:17:44;1.30;;;1.10;;
4756;SDS011;2392;52.578;13.426;2023-04-24T08:20:11;1.47;;;0.90;;
4756;SDS011;2392;52.578;13.426;2023-04-24T08:22:39;1.10;;;1.00;;
4756;SDS011;2392;52.578;13.426;2023-04-24T08:25:07;0.70;;;0.70;;
4756;SDS011;2392;52.578;13.426;2023-04-24T08:27:35;1.20;;;1.00;;
4756;SDS011;2392;52.578;13.426;2023-04-24T08:30:04;1.53;;;0.97;;
4756;SDS011;2392;52.578;13.426;2023-04-24T08:32:33;0.80;;;0.80;;
4756;SDS011;2392;52.578;13.426;2023-04-24T08:35:00;6.70;;;1.00;;
4756;SDS011;2392;52.578;13.426;2023-04-24T08:37:27;0.70;;;0.70;;
4756;SDS011;2392;52.578;13.426;2023-04-24T08:39:54;1.17;;;1.07;;
4756;SDS011;2392;52.578;13.426;2023-04-24T08:42:21;0.90;;;0.90;;
4756;SDS011;2392;52.578;13.426;2023-04-24T08:44:49;1.23;;;0.83;;
4756;SDS011;2392;52.578;13.426;2023-04-24T08:47:17;2.10;;;0.77;;
4756;SDS011;2392;52.578;13.426;2023-04-24T08:49:46;3.70;;;0.90;;
4756;SDS011;2392;52.578;13.426;2023-04-24T08:52:15;2.20;;;0.70;;
4756;SDS011;2392;52.578;13.426;2023-04-24T08:54:42;0.70;;;0.70;;
4756;SDS011;2392;52.578;13.426;2023-04-24T08:57:12;11.43;;;1.10;;
4756;SDS011;2392;52.578;13.426;2023-04-24T08:59:41;1.90;;;0.73;;
4756;SDS011;2392;52.578;13.426;2023-04-24T09:02:10;0.90;;;0.90;;
4756;SDS011;2392;52.578;13.426;2023-04-24T09:04:37;0.70;;;0.70;;
4756;SDS011;2392;52.578;13.426;2023-04-24T09:07:06;1.33;;;1.20;;
4756;SDS011;2392;52.578;13.426;2023-04-24T09:09:36;1.17;;;1.07;;
4756;SDS011;2392;52.578;13.426;2023-04-24T09:12:05;0.87;;;0.87;;
4756;SDS011;2392;52.578;13.426;2023-04-24T09:14:35;0.90;;;0.90;;
4756;SDS011;2392;52.578;13.426;2023-04-24T09:17:04;1.27;;;1.07;;
4756;SDS011;2392;52.578;13.426;2023-04-24T09:19:32;3.83;;;1.17;;
4756;SDS011;2392;52.578;13.426;2023-04-24T09:22:05;0.97;;;0.97;;
4756;SDS011;2392;52.578;13.426;2023-04-24T09:24:33;1.10;;;0.87;;
4756;SDS011;2392;52.578;13.426;2023-04-24T09:27:03;1.33;;;0.70;;
4756;SDS011;2392;52.578;13.426;2023-04-24T09:29:30;1.17;;;0.50;;
4756;SDS011;2392;52.578;13.426;2023-04-24T09:31:58;0.80;;;0.80;;
4756;SDS011;2392;52.578;13.426;2023-04-24T09:34:25;0.70;;;0.70;;
4756;SDS011;2392;52.578;13.426;2023-04-24T09:36:53;3.70;;;0.97;;
4756;SDS011;2392;52.578;13.426;2023-04-24T09:39:22;1.07;;;0.70;;
4756;SDS011;2392;52.578;13.426;2023-04-24T09:41:49;0.90;;;0.70;;
4756;SDS011;2392;52.578;13.426;2023-04-24T09:44:18;1.10;;;1.10;;
4756;SDS011;2392;52.578;13.426;2023-04-24T09:46:48;1.80;;;1.10;;
4756;SDS011;2392;52.578;13.426;2023-04-24T09:49:21;1.23;;;0.70;;
4756;SDS011;2392;52.578;13.426;2023-04-24T09:51:50;0.77;;;0.77;;
4756;SDS011;2392;52.578;13.426;2023-04-24T09:54:30;2.20;;;0.93;;
4756;SDS011;2392;52.578;13.426;2023-04-24T09:57:01;1.57;;;1.20;;
4756;SDS011;2392;52.578;13.426;2023-04-24T09:59:29;1.27;;;0.90;;
4756;SDS011;2392;52.578;13.426;2023-04-24T10:01:57;1.33;;;1.23;;
4756;SDS011;2392;52.578;13.426;2023-04-24T10:04:25;1.13;;;1.03;;
4756;SDS011;2392;52.578;13.426;2023-04-24T10:06:54;1.00;;;0.90;;
4756;SDS011;2392;52.578;13.426;2023-04-24T10:09:24;0.80;;;0.80;;
4756;SDS011;2392;52.578;13.426;2023-04-24T10:11:53;1.90;;;1.07;;
4756;SDS011;2392;52.578;13.426;2023-04-24T10:14:21;1.33;;;1.03;;
4756;SDS011;2392;52.578;13.426;2023-04-24T10:16:50;1.00;;;0.70;;
4756;SDS011;2392;52.578;13.426;2023-04-24T10:19:19;1.10;;;0.90;;
4756;SDS011;2392;52.578;13.426;2023-04-24T10:21:48;2.40;;;1.60;;
4756;SDS011;2392;52.578;13.426;2023-04-24T10:24:17;4.67;;;1.03;;
4756;SDS011;2392;52.578;13.426;2023-04-24T10:26:46;0.80;;;0.80;;
4756;SDS011;2392;52.578;13.426;2023-04-24T10:29:17;1.43;;;0.90;;
4756;SDS011;2392;52.578;13.426;2023-04-24T10:31:46;1.73;;;0.97;;
4756;SDS011;2392;52.578;13.426;2023-04-24T10:34:14;0.80;;;0.80;;
4756;SDS011;2392;52.578;13.426;2023-04-24T10:36:43;1.00;;;0.83;;
4756;SDS011;2392;52.578;13.426;2023-04-24T10:39:13;0.80;;;0.80;;
4756;SDS011;2392;52.578;13.426;2023-04-24T10:41:42;0.73;;;0.73;;
4756;SDS011;2392;52.578;13.426;2023-04-24T10:44:10;1.90;;;1.00;;
4756;SDS011;2392;52.578;13.426;2023-04-24T10:46:42;1.50;;;1.40;;
4756;SDS011;2392;52.578;13.426;2023-04-24T10:49:13;1.00;;;1.00;;
4756;SDS011;2392;52.578;13.426;2023-04-24T10:51:46;1.53;;;1.20;;
4756;SDS011;2392;52.578;13.426;2023-04-24T10:54:24;2.40;;;0.60;;
4756;SDS011;2392;52.578;13.426;2023-04-24T10:56:52;0.70;;;0.70;;
4756;SDS011;2392;52.578;13.426;2023-04-24T10:59:26;1.00;;;0.70;;
4756;SDS011;2392;52.578;13.426;2023-04-24T11:01:55;1.00;;;0.73;;
4756;SDS011;2392;52.578;13.426;2023-04-24T11:04:28;1.23;;;0.90;;
4756;SDS011;2392;52.578;13.426;2023-04-24T11:06:56;0.80;;;0.80;;
4756;SDS011;2392;52.578;13.426;2023-04-24T11:09:26;0.77;;;0.67;;
4756;SDS011;2392;52.578;13.426;2023-04-24T11:12:02;0.77;;;0.77;;
4756;SDS011;2392;52.578;13.426;2023-04-24T11:14:31;1.03;;;0.90;;
4756;SDS011;2392;52.578;13.426;2023-04-24T11:17:30;1.70;;;1.03;;
4756;SDS011;2392;52.578;13.426;2023-04-24T11:20:01;0.80;;;0.73;;
4756;SDS011;2392;52.578;13.426;2023-04-24T11:22:30;1.37;;;0.80;;
4756;SDS011;2392;52.578;13.426;2023-04-24T11:25:00;1.20;;;1.10;;
4756;SDS011;2392;52.578;13.426;2023-04-24T11:27:30;0.90;;;0.90;;
4756;SDS011;2392;52.578;13.426;2023-04-24T11:29:59;1.10;;;0.93;;
4756;SDS011;2392;52.578;13.426;2023-04-24T11:32:27;0.67;;;0.67;;
4756;SDS011;2392;52.578;13.426;2023-04-24T11:34:57;0.90;;;0.70;;
4756;SDS011;2392;52.578;13.426;2023-04-24T11:37:26;1.83;;;0.80;;
4756;SDS011;2392;52.578;13.426;2023-04-24T11:39:56;1.20;;;1.10;;
4756;SDS011;2392;52.578;13.426;2023-04-24T11:42:24;1.23;;;0.70;;
4756;SDS011;2392;52.578;13.426;2023-04-24T11:44:52;2.63;;;1.00;;
4756;SDS011;2392;52.578;13.426;2023-04-24T11:47:27;0.93;;;0.93;;
4756;SDS011;2392;52.578;13.426;2023-04-24T11:49:54;1.23;;;1.13;;
4756;SDS011;2392;52.578;13.426;2023-04-24T11:52:23;2.87;;;1.00;;
4756;SDS011;2392;52.578;13.426;2023-04-24T11:54:50;2.57;;;1.23;;
4756;SDS011;2392;52.578;13.426;2023-04-24T11:57:19;1.20;;;1.10;;
4756;SDS011;2392;52.578;13.426;2023-04-24T11:59:47;1.57;;;0.90;;
4756;SDS011;2392;52.578;13.426;2023-04-24T12:02:21;1.47;;;1.07;;
4756;SDS011;2392;52.578;13.426;2023-04-24T12:04:49;0.90;;;0.90;;
4756;SDS011;2392;52.578;13.426;2023-04-24T12:07:17;0.70;;;0.70;;
4756;SDS011;2392;52.578;13.426;2023-04-24T12:09:45;1.57;;;0.80;;
4756;SDS011;2392;52.578;13.426;2023-04-24T12:12:13;1.57;;;1.00;;
4756;SDS011;2392;52.578;13.426;2023-04-24T12:14:44;1.70;;;0.97;;
4756;SDS011;2392;52.578;13.426;2023-04-24T12:17:15;1.10;;;0.97;;
4756;SDS011;2392;52.578;13.426;2023-04-24T12:19:46;1.50;;;1.03;;
4756;SDS011;2392;52.578;13.426;2023-04-24T12:22:14;1.63;;;0.93;;
4756;SDS011;2392;52.578;13.426;2023-04-24T12:24:58;0.80;;;0.80;;
4756;SDS011;2392;52.578;13.426;2023-04-24T12:27:30;1.37;;;1.00;;
4756;SDS011;2392;52.578;13.426;2023-04-24T12:29:59;2.07;;;1.30;;
4756;SDS011;2392;52.578;13.426;2023-04-24T12:32:27;2.20;;;1.30;;
4756;SDS011;2392;52.578;13.426;2023-04-24T12:34:57;1.83;;;1.73;;
4756;SDS011;2392;52.578;13.426;2023-04-24T12:37:25;5.80;;;0.97;;
4756;SDS011;2392;52.578;13.426;2023-04-24T12:40:01;3.77;;;0.83;;
4756;SDS011;2392;52.578;13.426;2023-04-24T12:42:31;1.43;;;1.10;;
4756;SDS011;2392;52.578;13.426;2023-04-24T12:44:58;0.97;;;0.83;;
4756;SDS011;2392;52.578;13.426;2023-04-24T12:47:27;1.17;;;1.07;;
4756;SDS011;2392;52.578;13.426;2023-04-24T12:49:54;1.33;;;0.77;;
4756;SDS011;2392;52.578;13.426;2023-04-24T12:52:22;4.73;;;0.70;;
4756;SDS011;2392;52.578;13.426;2023-04-24T12:54:52;1.13;;;0.83;;
4756;SDS011;2392;52.578;13.426;2023-04-24T12:57:22;1.13;;;0.60;;
4756;SDS011;2392;52.578;13.426;2023-04-24T12:59:49;0.73;;;0.73;;
4756;SDS011;2392;52.578;13.426;2023-04-24T13:02:16;0.80;;;0.60;;
4756;SDS011;2392;52.578;13.426;2023-04-24T13:04:43;1.63;;;0.80;;
4756;SDS011;2392;52.578;13.426;2023-04-24T13:07:11;0.80;;;0.80;;
4756;SDS011;2392;52.578;13.426;2023-04-24T13:09:39;0.83;;;0.70;;
4756;SDS011;2392;52.578;13.426;2023-04-24T13:12:06;1.07;;;0.93;;
4756;SDS011;2392;52.578;13.426;2023-04-24T13:14:35;0.70;;;0.70;;
4756;SDS011;2392;52.578;13.426;2023-04-24T13:17:03;1.10;;;1.00;;
4756;SDS011;2392;52.578;13.426;2023-04-24T13:19:34;2.20;;;1.00;;
4756;SDS011;2392;52.578;13.426;2023-04-24T13:22:02;1.07;;;0.90;;
4756;SDS011;2392;52.578;13.426;2023-04-24T13:24:30;1.73;;;1.00;;
4756;SDS011;2392;52.578;13.426;2023-04-24T13:26:58;1.10;;;0.80;;
4756;SDS011;2392;52.578;13.426;2023-04-24T13:29:26;0.93;;;0.90;;
4756;SDS011;2392;52.578;13.426;2023-04-24T13:31:54;1.00;;;1.00;;
4756;SDS011;2392;52.578;13.426;2023-04-24T13:34:22;1.10;;;1.00;;
4756;SDS011;2392;52.578;13.426;2023-04-24T13:36:49;1.97;;;1.17;;
4756;SDS011;2392;52.578;13.426;2023-04-24T13:39:20;0.80;;;0.80;;
4756;SDS011;2392;52.578;13.426;2023-04-24T13:41:47;1.93;;;0.80;;
4756;SDS011;2392;52.578;13.426;2023-04-24T13:44:15;1.17;;;1.07;;
4756;SDS011;2392;52.578;13.426;2023-04-24T13:46:43;0.83;;;0.80;;
4756;SDS011;2392;52.578;13.426;2023-04-24T13:49:13;2.43;;;1.10;;
4756;SDS011;2392;52.578;13.426;2023-04-24T13:51:41;1.20;;;1.10;;
4756;SDS011;2392;52.578;13.426;2023-04-24T13:54:09;1.57;;;1.20;;
4756;SDS011;2392;52.578;13.426;2023-04-24T13:56:36;2.10;;;1.10;;
4756;SDS011;2392;52.578;13.426;2023-04-24T13:59:03;3.53;;;1.00;;
4756;SDS011;2392;52.578;13.426;2023-04-24T14:01:31;5.77;;;1.23;;
4756;SDS011;2392;52.578;13.426;2023-04-24T14:03:58;0.97;;;0.97;;
4756;SDS011;2392;52.578;13.426;2023-04-24T14:06:26;1.20;;;1.10;;
4756;SDS011;2392;52.578;13.426;2023-04-24T14:08:53;1.67;;;0.90;;
4756;SDS011;2392;52.578;13.426;2023-04-24T14:11:20;1.43;;;0.70;;
4756;SDS011;2392;52.578;13.426;2023-04-24T14:13:47;2.00;;;1.60;;
4756;SDS011;2392;52.578;13.426;2023-04-24T14:16:15;1.40;;;1.27;;
4756;SDS011;2392;52.578;13.426;2023-04-24T14:18:42;1.00;;;0.70;;
4756;SDS011;2392;52.578;13.426;2023-04-24T14:21:09;3.23;;;1.20;;
4756;SDS011;2392;52.578;13.426;2023-04-24T14:23:37;5.50;;;0.90;;
4756;SDS011;2392;52.578;13.426;2023-04-24T14:26:04;0.90;;;0.90;;
4756;SDS011;2392;52.578;13.426;2023-04-24T14:28:32;1.27;;;1.00;;
4756;SDS011;2392;52.578;13.426;2023-04-24T14:30:59;0.80;;;0.80;;
4756;SDS011;2392;52.578;13.426;2023-04-24T14:33:26;1.30;;;1.20;;
4756;SDS011;2392;52.578;13.426;2023-04-24T14:35:54;0.80;;;0.80;;
4756;SDS011;2392;52.578;13.426;2023-04-24T14:38:21;1.40;;;1.30;;
4756;SDS011;2392;52.578;13.426;2023-04-24T14:40:50;2.70;;;0.83;;
4756;SDS011;2392;52.578;13.426;2023-04-24T14:43:16;2.20;;;1.23;;
4756;SDS011;2392;52.578;13.426;2023-04-24T14:45:44;1.57;;;0.90;;
4756;SDS011;2392;52.578;13.426;2023-04-24T14:48:11;0.60;;;0.60;;
4756;SDS011;2392;52.578;13.426;2023-04-24T14:50:38;0.80;;;0.80;;
4756;SDS011;2392;52.578;13.426;2023-04-24T14:53:05;4.80;;;1.20;;
4756;SDS011;2392;52.578;13.426;2023-04-24T14:55:32;2.20;;;0.90;;
4756;SDS011;2392;52.578;13.426;2023-04-24T14:58:02;2.50;;;1.10;;
4756;SDS011;2392;52.578;13.426;2023-04-24T15:00:30;0.93;;;0.93;;
4756;SDS011;2392;52.578;13.426;2023-04-24T15:03:00;0.97;;;0.97;;
4756;SDS011;2392;52.578;13.426;2023-04-24T15:05:27;1.40;;;1.30;;
4756;SDS011;2392;52.578;13.426;2023-04-24T15:07:55;1.37;;;0.97;;
4756;SDS011;2392;52.578;13.426;2023-04-24T15:10:22;1.10;;;1.10;;